Evan, Czech Republic

5:05 AM CEST on October 23, 2019 (GMT +0200)
Mšené-lázně | | Change Station

Elev 922 ft 50.37 °N, 14.06 °E | Updated 8 seconds ago

Overcast
Overcast
54 °F
Feels Like 54 °F
N
0
Wind Variable Wind from West
Gusts 0.0 mph

Today
High -- | Low -- °F
--% Chance of Precip.
Yesterday
High -- | Low -- °F
Precip. -- in
Pressure 30.18 in
Visibility 0.6 miles
Clouds Overcast 100 ft
Dew Point 54 °F
Humidity 99%
Rainfall 0.00 in
Snow Depth Not available.
7:38 AM 5:57 PM
Waning Crescent, 32% visible
METAR LKPR 230230Z 06002KT 1000 R24/1100U BR OVC001 12/12 Q1022 TEMPO 0600 FG
Pressure 30.18 in
Visibility 0.6 miles
Clouds Overcast 100 ft
Dew Point 54 °F
Humidity 99%
Rainfall 0.00 in
Snow Depth Not available.
7:38 AM 5:57 PM
Waning Crescent, 32% visible
METAR LKPR 230230Z 06002KT 1000 R24/1100U BR OVC001 12/12 Q1022 TEMPO 0600 FG

Get Severe Weather Alerts

Thanks for signing up!

Be on the lookout for a verification email in your inbox.

You'll start receiving the daily forecast at 6 AM.

×

10-Day Weather Forecast

×

Almanac

Astronomy

Oct. 23, 2019 Rise Set
Actual Time
Civil Twilight
Nautical Twilight
Astronomical Twilight
Moon
Length of Visible Light
Length of Day
Tomorrow will be .
, % of the Moon is Illuminated

Today's Extremes

Country Highs Country Lows

Community

WunderPhotos

Category 6

Welcome to Category 6. This is the collective home for Weather Underground's featured writeups by Dr. Jeff Masters (right), Bob Henson (left), Chris Burt, and other regular contributors.

Nearby

Air Quality

  Air Quality AQ Index Pollutant
Not available.

Snow Depth

Station Depth Elevation

Earthquake Activity

City Distance Mag. Time & Date
Minimum magnitude displayed is 2.5.

Coastal Water Temperatures

Place Temperature

Stations

Nearby Weather Stations

Station Location Temp. Windchill Dew Point Humidity Wind Precip. Elev Updated Type